createdAt,value
2023-11-23T00:00:11.903Z,19.98
2023-11-23T00:02:41.102Z,20.88
2023-11-23T00:05:11.198Z,21.63
2023-11-23T00:07:40.784Z,19.45
2023-11-23T00:10:12.189Z,19.38
2023-11-23T00:12:42.220Z,19.58
2023-11-23T00:15:11.121Z,20.13
2023-11-23T00:17:39.543Z,18.42
2023-11-23T00:20:10.317Z,24.73
2023-11-23T00:22:40.160Z,19.67
2023-11-23T00:25:13.307Z,20.92
2023-11-23T00:27:41.981Z,21.17
2023-11-23T00:30:11.036Z,23.35
2023-11-23T00:32:40.138Z,17.50
2023-11-23T00:35:09.345Z,20.85
2023-11-23T00:37:37.639Z,20.35
2023-11-23T00:40:08.527Z,19.35
2023-11-23T00:42:36.525Z,22.70
2023-11-23T00:45:05.941Z,20.65
2023-11-23T00:47:34.272Z,19.45
2023-11-23T00:50:03.500Z,20.33
2023-11-23T00:52:31.915Z,19.55
2023-11-23T00:55:00.446Z,17.25
2023-11-23T00:57:29.758Z,19.17
2023-11-23T00:59:57.718Z,18.50
2023-11-23T01:02:26.225Z,20.45
2023-11-23T01:04:54.040Z,18.73
2023-11-23T01:07:22.430Z,19.67
2023-11-23T01:09:50.663Z,19.67
2023-11-23T01:12:18.995Z,21.52
2023-11-23T01:14:49.064Z,18.67
2023-11-23T01:17:17.354Z,18.30
2023-11-23T01:19:46.438Z,22.17
2023-11-23T01:22:15.230Z,19.70
2023-11-23T01:24:43.430Z,23.58
2023-11-23T01:27:11.628Z,19.45
2023-11-23T01:29:39.649Z,23.83
2023-11-23T01:32:10.509Z,19.02
2023-11-23T01:34:38.963Z,18.45
2023-11-23T01:37:07.012Z,22.02
2023-11-23T01:39:35.291Z,17.88
2023-11-23T01:42:04.243Z,16.70
2023-11-23T01:44:32.611Z,19.52
2023-11-23T01:47:00.843Z,21.15
2023-11-23T01:49:30.556Z,19.42
2023-11-23T01:51:58.837Z,19.30
2023-11-23T01:54:27.294Z,20.10
2023-11-23T01:56:55.655Z,17.27
2023-11-23T01:59:24.178Z,29.98
2023-11-23T02:01:52.428Z,20.88
2023-11-23T02:04:20.635Z,19.27
2023-11-23T02:06:50.444Z,19.33
2023-11-23T02:09:19.163Z,16.15
2023-11-23T02:11:47.313Z,17.92
2023-11-23T02:14:15.656Z,18.42
2023-11-23T02:16:43.908Z,16.85
2023-11-23T02:19:12.521Z,16.05
2023-11-23T02:21:41.812Z,16.25
2023-11-23T02:24:12.868Z,16.75
2023-11-23T02:26:41.195Z,19.98
2023-11-23T02:29:09.443Z,16.83
2023-11-23T02:31:37.659Z,14.52
2023-11-23T02:34:05.785Z,13.52
2023-11-23T02:36:33.993Z,19.80
2023-11-23T02:39:02.350Z,14.57
2023-11-23T02:41:32.027Z,17.50
2023-11-23T02:44:00.405Z,19.63
2023-11-23T02:46:29.604Z,15.90
2023-11-23T02:48:57.657Z,17.17
2023-11-23T02:51:26.463Z,16.92
2023-11-23T02:53:54.890Z,18.30
2023-11-23T02:56:25.010Z,16.92
2023-11-23T02:58:55.541Z,12.13
2023-11-23T03:01:24.537Z,15.65
2023-11-23T03:03:56.223Z,13.30
2023-11-23T03:06:24.581Z,14.18
2023-11-23T03:08:53.097Z,15.90
2023-11-23T03:11:21.970Z,13.95
2023-11-23T03:13:50.891Z,11.32
2023-11-23T03:16:20.825Z,12.43
2023-11-23T03:18:49.432Z,11.80
2023-11-23T03:21:17.978Z,13.35
2023-11-23T03:23:47.086Z,15.40
2023-11-23T03:26:15.361Z,14.68
2023-11-23T03:28:43.691Z,16.48
2023-11-23T03:31:11.797Z,13.77
2023-11-23T03:33:42.602Z,12.50
2023-11-23T03:36:11.631Z,12.05
2023-11-23T03:38:39.628Z,14.23
2023-11-23T03:41:07.873Z,13.82
2023-11-23T03:43:36.221Z,12.73
2023-11-23T03:46:04.854Z,11.60
2023-11-23T03:48:33.236Z,14.30
2023-11-23T03:51:03.623Z,14.25
2023-11-23T03:53:31.683Z,15.82
2023-11-23T03:56:00.024Z,16.15
2023-11-23T03:58:28.623Z,13.65
2023-11-23T04:00:56.629Z,14.35
2023-11-23T04:03:24.924Z,15.63
2023-11-23T04:05:53.409Z,13.05
2023-11-23T04:08:24.759Z,13.75
2023-11-23T04:10:53.083Z,14.38
2023-11-23T04:13:21.105Z,15.02
2023-11-23T04:15:49.106Z,14.60
2023-11-23T04:18:17.240Z,14.15
2023-11-23T04:20:45.792Z,15.00
2023-11-23T04:23:14.942Z,11.88
2023-11-23T04:25:44.637Z,12.88
2023-11-23T04:28:13.029Z,12.32
2023-11-23T04:30:41.296Z,12.13
2023-11-23T04:33:09.433Z,13.63
2023-11-23T04:35:37.762Z,15.25
2023-11-23T04:38:06.046Z,13.73
2023-11-23T04:40:34.272Z,12.57
2023-11-23T04:43:03.834Z,15.05
2023-11-23T04:45:32.250Z,13.90
2023-11-23T04:48:00.661Z,14.57
2023-11-23T04:50:29.129Z,13.25
2023-11-23T04:52:58.412Z,11.90
2023-11-23T04:55:29.307Z,14.20
2023-11-23T04:57:58.154Z,11.82
2023-11-23T05:00:28.001Z,12.02
2023-11-23T05:02:56.360Z,11.68
2023-11-23T05:05:24.796Z,14.30
2023-11-23T05:07:52.849Z,13.10
2023-11-23T05:10:22.028Z,12.85
2023-11-23T05:12:52.581Z,11.38
2023-11-23T05:15:20.989Z,13.18
2023-11-23T05:17:50.533Z,11.00
2023-11-23T05:20:20.014Z,15.88
2023-11-23T05:22:48.241Z,12.70
2023-11-23T05:25:16.625Z,16.27
2023-11-23T05:27:44.656Z,12.38
2023-11-23T05:30:14.282Z,13.95
2023-11-23T05:32:42.666Z,12.48
2023-11-23T05:35:14.055Z,12.50
2023-11-23T05:37:42.208Z,10.27
2023-11-23T05:40:13.341Z,11.43
2023-11-23T05:42:47.924Z,12.73
2023-11-23T05:45:22.277Z,13.38
2023-11-23T05:47:50.596Z,15.45
2023-11-23T05:50:20.389Z,14.90
2023-11-23T05:52:48.554Z,16.08
2023-11-23T05:55:17.603Z,14.77
2023-11-23T05:57:45.888Z,19.85
2023-11-23T06:00:15.508Z,17.35
2023-11-23T06:02:44.086Z,17.13
2023-11-23T06:05:12.637Z,15.30
2023-11-23T06:07:42.245Z,17.38
2023-11-23T06:10:12.974Z,20.15
2023-11-23T06:12:41.592Z,15.63
2023-11-23T06:15:10.644Z,17.65
2023-11-23T06:17:39.057Z,18.65
2023-11-23T06:20:09.693Z,18.00
2023-11-23T06:22:37.798Z,17.83
2023-11-23T06:25:08.675Z,17.38
2023-11-23T06:27:37.099Z,20.67
2023-11-23T06:30:06.782Z,21.63
2023-11-23T06:32:34.992Z,24.48
2023-11-23T06:35:03.250Z,21.73
2023-11-23T06:37:31.494Z,19.90
2023-11-23T06:39:59.841Z,20.90
2023-11-23T06:42:29.200Z,23.40
2023-11-23T06:44:58.157Z,22.42
2023-11-23T06:47:26.508Z,19.63
2023-11-23T06:49:54.864Z,20.90
2023-11-23T06:52:23.169Z,20.00
2023-11-23T06:54:51.520Z,22.70
2023-11-23T06:57:20.123Z,23.73
2023-11-23T06:59:49.539Z,20.38
2023-11-23T07:02:17.948Z,21.75
2023-11-23T07:04:46.338Z,22.42
2023-11-23T07:07:14.379Z,20.40
2023-11-23T07:09:42.482Z,18.40
2023-11-23T07:12:11.375Z,25.55
2023-11-23T07:14:42.276Z,22.10
2023-11-23T07:17:11.818Z,22.33
2023-11-23T07:19:40.767Z,21.50
2023-11-23T07:22:08.734Z,25.67
2023-11-23T07:24:37.101Z,23.60
2023-11-23T07:27:05.856Z,24.38
2023-11-23T07:29:34.124Z,20.08
2023-11-23T07:32:02.351Z,21.52
2023-11-23T07:34:31.680Z,23.05
2023-11-23T07:36:59.942Z,21.40
2023-11-23T07:39:28.006Z,22.17
2023-11-23T07:41:56.209Z,22.83
2023-11-23T07:44:24.516Z,21.25
2023-11-23T07:46:52.822Z,20.92
2023-11-23T07:49:20.874Z,20.67
2023-11-23T07:51:50.714Z,22.48
2023-11-23T07:54:19.239Z,20.90
2023-11-23T07:56:47.852Z,26.70
2023-11-23T07:59:16.170Z,24.70
2023-11-23T08:01:44.496Z,23.85
2023-11-23T08:04:12.995Z,21.83
2023-11-23T08:06:41.154Z,24.52
2023-11-23T08:09:17.468Z,23.02
2023-11-23T08:11:45.559Z,23.45
2023-11-23T08:14:14.354Z,23.17
2023-11-23T08:16:42.558Z,23.85
2023-11-23T08:19:10.878Z,21.58
2023-11-23T08:21:41.179Z,23.85
2023-11-23T08:24:11.338Z,24.48
2023-11-23T08:26:39.376Z,23.52
2023-11-23T08:29:08.003Z,26.52
2023-11-23T08:31:36.545Z,22.90
2023-11-23T08:34:05.215Z,22.52
2023-11-23T08:36:33.262Z,25.00
2023-11-23T08:39:01.729Z,23.10
2023-11-23T08:41:31.994Z,21.40
2023-11-23T08:44:01.113Z,22.00
2023-11-23T08:46:29.305Z,24.90
2023-11-23T08:48:57.729Z,20.83
2023-11-23T08:51:26.075Z,25.63
2023-11-23T08:53:54.354Z,23.30
2023-11-23T08:56:23.856Z,21.77
2023-11-23T08:58:53.518Z,21.83
2023-11-23T09:01:21.568Z,20.42
2023-11-23T09:03:50.346Z,19.65
2023-11-23T09:06:19.870Z,25.67
2023-11-23T09:08:49.719Z,22.30
2023-11-23T09:11:18.198Z,18.23
2023-11-23T09:13:46.246Z,21.45
2023-11-23T09:16:16.025Z,22.05
2023-11-23T09:18:45.142Z,16.15
2023-11-23T09:21:13.527Z,15.48
2023-11-23T09:23:42.190Z,25.42
2023-11-23T09:26:10.306Z,16.00
2023-11-23T09:28:38.590Z,19.05
2023-11-23T09:31:09.653Z,16.27
2023-11-23T09:33:39.170Z,19.58
2023-11-23T09:36:07.639Z,18.40
2023-11-23T09:38:36.485Z,17.75
2023-11-23T09:41:09.194Z,28.67
2023-11-23T09:43:37.444Z,19.60
2023-11-23T09:46:07.480Z,17.95
2023-11-23T09:48:38.858Z,22.58
2023-11-23T09:51:12.105Z,19.60
2023-11-23T09:53:44.624Z,17.05
2023-11-23T09:56:12.768Z,18.88
2023-11-23T09:58:40.750Z,16.30
2023-11-23T10:01:10.306Z,16.88
2023-11-23T10:03:42.079Z,17.90
2023-11-23T10:06:12.544Z,19.33
2023-11-23T10:08:42.238Z,16.90
2023-11-23T10:11:10.524Z,25.77
2023-11-23T10:13:38.741Z,23.55
2023-11-23T10:16:07.396Z,26.27
2023-11-23T10:18:39.033Z,22.15
2023-11-23T10:21:07.522Z,21.13
2023-11-23T10:23:36.970Z,19.90
2023-11-23T10:26:05.026Z,22.40
2023-11-23T10:28:33.095Z,20.10
2023-11-23T10:31:05.379Z,19.60
2023-11-23T10:33:36.639Z,18.60
2023-11-23T10:36:06.581Z,19.02
2023-11-23T10:38:44.059Z,18.55
2023-11-23T10:41:15.810Z,20.52
2023-11-23T10:43:46.809Z,21.05
2023-11-23T10:46:15.596Z,19.52
2023-11-23T10:48:46.096Z,21.45
2023-11-23T10:51:17.509Z,18.92
2023-11-23T10:53:47.391Z,21.98
2023-11-23T10:56:20.326Z,20.05
2023-11-23T10:58:51.732Z,20.70
2023-11-23T11:01:23.659Z,20.95
2023-11-23T11:03:52.796Z,21.50
2023-11-23T11:06:22.927Z,24.90
2023-11-23T11:08:53.080Z,20.33
2023-11-23T11:11:23.544Z,19.08
2023-11-23T11:14:00.432Z,20.42
2023-11-23T11:16:34.843Z,19.48
2023-11-23T11:19:08.010Z,19.10
2023-11-23T11:21:43.787Z,21.25
2023-11-23T11:24:20.838Z,18.08
2023-11-23T11:26:50.331Z,18.75
2023-11-23T11:29:19.377Z,19.42
2023-11-23T11:31:50.358Z,19.15
2023-11-23T11:34:20.545Z,21.50
2023-11-23T11:36:53.113Z,21.38
2023-11-23T11:39:23.493Z,17.55
2023-11-23T11:42:00.558Z,15.73
2023-11-23T11:44:30.281Z,20.13
2023-11-23T11:46:58.562Z,20.05
2023-11-23T11:49:26.892Z,17.95
2023-11-23T11:51:55.593Z,16.77
2023-11-23T11:54:26.834Z,15.48
2023-11-23T11:56:55.298Z,17.00
2023-11-23T11:59:26.174Z,16.67
2023-11-23T12:01:55.064Z,18.05
2023-11-23T12:04:23.406Z,20.23
2023-11-23T12:06:51.791Z,17.73
2023-11-23T12:09:31.041Z,16.00
2023-11-23T12:12:11.450Z,19.35
2023-11-23T12:14:40.163Z,13.65
2023-11-23T12:17:11.600Z,17.65
2023-11-23T12:19:50.800Z,17.05
2023-11-23T12:22:22.163Z,15.50
2023-11-23T12:24:50.305Z,16.48
2023-11-23T12:27:22.145Z,16.90
2023-11-23T12:29:50.782Z,16.27
2023-11-23T12:32:18.968Z,21.67
2023-11-23T12:34:47.030Z,18.90
2023-11-23T12:37:15.828Z,15.20
2023-11-23T12:39:43.987Z,17.02
2023-11-23T12:42:12.320Z,17.02
2023-11-23T12:44:42.140Z,20.35
2023-11-23T12:47:10.535Z,17.40
2023-11-23T12:49:38.655Z,17.38
2023-11-23T12:52:08.966Z,15.25
2023-11-23T12:54:37.245Z,15.25
2023-11-23T12:57:05.931Z,17.67
2023-11-23T12:59:34.195Z,17.77
2023-11-23T13:02:22.512Z,21.88
2023-11-23T13:04:50.839Z,15.85
2023-11-23T13:07:19.167Z,15.68
2023-11-23T13:09:49.720Z,12.10
2023-11-23T13:12:19.110Z,14.13
2023-11-23T13:14:48.725Z,13.15
2023-11-23T13:17:19.880Z,24.13
2023-11-23T13:19:49.202Z,35.60
2023-11-23T13:22:18.567Z,20.90
2023-11-23T13:24:48.551Z,19.35
2023-11-23T13:27:18.281Z,19.30
2023-11-23T13:29:48.642Z,16.92
2023-11-23T13:32:20.407Z,15.05
2023-11-23T13:34:50.630Z,13.60
2023-11-23T13:37:20.584Z,12.82
2023-11-23T13:39:49.535Z,14.32
2023-11-23T13:42:18.750Z,12.13
2023-11-23T13:44:47.872Z,12.88
2023-11-23T13:47:16.158Z,17.48
2023-11-23T13:49:46.104Z,14.45
2023-11-23T13:52:14.722Z,15.38
2023-11-23T13:54:52.037Z,17.98
2023-11-23T13:57:20.750Z,18.25
2023-11-23T13:59:50.577Z,15.43
2023-11-23T14:02:20.995Z,20.70
2023-11-23T14:04:50.910Z,18.38
2023-11-23T14:07:19.685Z,25.13
2023-11-23T14:09:48.129Z,18.88
2023-11-23T14:12:17.407Z,20.85
2023-11-23T14:14:49.128Z,20.35
2023-11-23T14:17:19.579Z,21.13
2023-11-23T14:19:52.554Z,24.73
2023-11-23T14:22:22.120Z,23.23
2023-11-23T14:24:51.649Z,23.42
2023-11-23T14:27:21.780Z,22.40
2023-11-23T14:29:51.691Z,25.25
2023-11-23T14:32:21.527Z,26.33
2023-11-23T14:34:53.144Z,19.55
2023-11-23T14:37:24.259Z,22.73
2023-11-23T14:39:53.621Z,24.25
2023-11-23T14:42:23.052Z,26.60
2023-11-23T14:44:54.949Z,20.67
2023-11-23T14:47:28.628Z,20.90
2023-11-23T14:49:58.779Z,19.30
2023-11-23T14:52:29.394Z,19.48
2023-11-23T14:55:01.682Z,27.52
2023-11-23T14:57:32.227Z,19.30
2023-11-23T15:00:04.409Z,23.67
2023-11-23T15:02:34.686Z,20.73
2023-11-23T15:05:06.951Z,19.77
2023-11-23T15:07:40.921Z,18.00
2023-11-23T15:10:14.013Z,23.05
2023-11-23T15:12:44.715Z,19.17
2023-11-23T15:15:14.758Z,19.35
2023-11-23T15:17:44.301Z,27.70
2023-11-23T15:20:16.145Z,18.92
2023-11-23T15:22:45.547Z,24.20
2023-11-23T15:25:14.841Z,22.95
2023-11-23T15:27:47.000Z,21.77
2023-11-23T15:30:17.400Z,26.45
2023-11-23T15:32:46.966Z,24.50
2023-11-23T15:35:18.104Z,21.30
2023-11-23T15:37:50.070Z,18.88
2023-11-23T15:40:20.882Z,18.48
2023-11-23T15:42:52.401Z,21.35
2023-11-23T15:45:22.192Z,20.77
2023-11-23T15:47:51.795Z,18.67
2023-11-23T15:50:26.626Z,25.15
2023-11-23T15:52:58.370Z,24.05
2023-11-23T15:55:29.037Z,21.80
2023-11-23T15:57:58.429Z,19.38
2023-11-23T16:00:28.596Z,19.15
2023-11-23T16:02:59.004Z,20.00
2023-11-23T16:05:31.514Z,21.73
2023-11-23T16:08:01.571Z,22.73
2023-11-23T16:10:31.853Z,24.95
2023-11-23T16:13:01.886Z,21.85
2023-11-23T16:15:33.472Z,23.70
2023-11-23T16:20:39.185Z,21.77
2023-11-23T16:23:10.787Z,19.52
2023-11-23T16:25:41.101Z,19.95
2023-11-23T16:28:10.629Z,21.92
2023-11-23T16:30:41.460Z,23.35
2023-11-23T16:33:11.658Z,25.60
2023-11-23T16:35:43.268Z,22.55
2023-11-23T16:38:12.985Z,19.15
2023-11-23T16:40:43.051Z,22.83
2023-11-23T16:43:13.104Z,20.08
2023-11-23T16:45:43.109Z,20.88
2023-11-23T16:48:13.267Z,23.35
2023-11-23T16:50:50.298Z,20.40
2023-11-23T16:53:20.940Z,19.67
2023-11-23T16:55:52.699Z,20.95
2023-11-23T16:58:22.042Z,22.17
2023-11-23T17:00:51.893Z,20.67
2023-11-23T17:03:22.191Z,20.77
2023-11-23T17:05:54.954Z,22.63
2023-11-23T17:08:25.583Z,22.80
2023-11-23T17:10:55.968Z,27.67
2023-11-23T17:13:26.540Z,25.98
2023-11-23T17:15:56.778Z,23.77
2023-11-23T17:18:27.910Z,28.15
2023-11-23T17:20:59.692Z,23.70
2023-11-23T17:23:31.591Z,19.92
2023-11-23T17:26:01.095Z,23.17
2023-11-23T17:28:31.474Z,23.42
2023-11-23T17:31:01.768Z,23.08
2023-11-23T17:33:33.907Z,24.13
2023-11-23T17:36:06.528Z,22.08
2023-11-23T17:38:37.172Z,22.30
2023-11-23T17:41:10.758Z,20.30
2023-11-23T17:43:41.609Z,17.33
2023-11-23T17:46:11.420Z,23.08
2023-11-23T17:48:41.589Z,19.95
2023-11-23T17:51:14.715Z,21.45
2023-11-23T17:53:44.940Z,23.30
2023-11-23T17:56:16.569Z,22.05
2023-11-23T17:58:48.736Z,22.10
2023-11-23T18:01:20.997Z,25.33
2023-11-23T18:03:50.686Z,20.33
2023-11-23T18:06:22.384Z,21.88
2023-11-23T18:08:52.771Z,20.58
2023-11-23T18:11:22.967Z,19.38
2023-11-23T18:13:54.198Z,21.92
2023-11-23T18:16:23.329Z,21.65
2023-11-23T18:18:54.123Z,22.90
2023-11-23T18:21:25.729Z,18.83
2023-11-23T18:23:57.647Z,21.50
2023-11-23T18:26:29.346Z,21.15
2023-11-23T18:28:59.629Z,21.23
2023-11-23T18:31:33.730Z,22.67
2023-11-23T18:34:05.837Z,21.83
2023-11-23T18:36:39.183Z,25.42
2023-11-23T18:39:14.819Z,20.42
2023-11-23T18:41:45.154Z,22.35
2023-11-23T18:44:15.895Z,19.55
2023-11-23T18:46:47.928Z,18.83
2023-11-23T18:49:20.580Z,18.85
2023-11-23T18:51:52.770Z,23.73
2023-11-23T18:54:25.616Z,20.40
2023-11-23T18:56:56.956Z,21.08
2023-11-23T18:59:30.101Z,22.83
2023-11-23T19:02:01.475Z,20.92
2023-11-23T19:04:32.026Z,23.10
2023-11-23T19:07:03.351Z,21.63
2023-11-23T19:09:34.552Z,23.17
2023-11-23T19:12:06.238Z,21.05
2023-11-23T19:14:35.903Z,19.35
2023-11-23T19:17:06.300Z,21.77
2023-11-23T19:19:38.842Z,28.60
2023-11-23T19:22:27.537Z,25.25
2023-11-23T19:24:57.860Z,21.90
2023-11-23T19:27:29.329Z,22.15
2023-11-23T19:30:01.863Z,20.10
2023-11-23T19:32:34.167Z,21.77
2023-11-23T19:35:10.758Z,23.15
2023-11-23T19:37:45.089Z,21.88
2023-11-23T19:40:19.869Z,22.33
2023-11-23T19:42:52.798Z,24.95
2023-11-23T19:45:25.514Z,28.75
2023-11-23T19:47:57.682Z,21.13
2023-11-23T19:50:30.714Z,21.98
2023-11-23T19:53:05.880Z,27.67
2023-11-23T19:55:36.596Z,25.80
2023-11-23T19:58:08.141Z,24.02
2023-11-23T20:00:40.685Z,25.55
2023-11-23T20:03:12.392Z,27.20
2023-11-23T20:05:43.168Z,28.70
2023-11-23T20:08:16.209Z,27.00
2023-11-23T20:10:47.236Z,27.00
2023-11-23T20:13:17.968Z,24.73
2023-11-23T20:15:49.796Z,27.27
2023-11-23T20:18:21.287Z,23.08
2023-11-23T20:20:53.990Z,23.10
2023-11-23T20:23:25.238Z,25.95
2023-11-23T20:25:55.476Z,27.52
2023-11-23T20:28:26.242Z,21.30
2023-11-23T20:30:56.534Z,25.60
2023-11-23T20:33:26.935Z,23.20
2023-11-23T20:35:57.525Z,24.80
2023-11-23T20:38:34.812Z,29.30
2023-11-23T20:41:08.393Z,24.02
2023-11-23T20:43:39.720Z,23.92
2023-11-23T20:46:13.083Z,30.15
2023-11-23T20:48:43.403Z,24.05
2023-11-23T20:51:15.040Z,23.48
2023-11-23T20:53:46.607Z,25.45
2023-11-23T20:56:18.251Z,20.33
2023-11-23T20:58:50.149Z,19.90
2023-11-23T21:01:22.626Z,23.02
2023-11-23T21:03:53.366Z,21.90
2023-11-23T21:06:26.498Z,17.90
2023-11-23T21:08:58.922Z,20.58
2023-11-23T21:11:29.364Z,20.25
2023-11-23T21:13:59.619Z,21.95
2023-11-23T21:16:30.680Z,22.42
2023-11-23T21:19:00.875Z,21.80
2023-11-23T21:21:31.044Z,23.27
2023-11-23T21:24:02.268Z,21.77
2023-11-23T21:26:33.723Z,18.08
2023-11-23T21:29:03.138Z,20.08
2023-11-23T21:31:33.420Z,25.10
2023-11-23T21:34:03.410Z,19.15
2023-11-23T21:36:35.841Z,21.13
2023-11-23T21:39:09.726Z,21.75
2023-11-23T21:44:09.889Z,21.30
2023-11-23T21:46:40.452Z,20.55
2023-11-23T21:49:09.856Z,18.90
2023-11-23T21:51:39.468Z,20.65
2023-11-23T21:54:11.282Z,18.40
2023-11-23T21:56:40.312Z,18.52
2023-11-23T21:59:09.713Z,19.42
2023-11-23T22:01:38.407Z,16.27
2023-11-23T22:04:07.308Z,17.55
2023-11-23T22:06:35.735Z,15.35
2023-11-23T22:09:04.340Z,16.17
2023-11-23T22:11:33.874Z,19.60
2023-11-23T22:14:02.232Z,16.23
2023-11-23T22:16:30.663Z,16.65
2023-11-23T22:18:59.287Z,15.73
2023-11-23T22:21:28.214Z,14.65
2023-11-23T22:23:56.928Z,16.55
2023-11-23T22:26:25.619Z,15.57
2023-11-23T22:28:56.568Z,18.80
2023-11-23T22:31:27.503Z,14.40
2023-11-23T22:33:56.330Z,17.80
2023-11-23T22:36:25.537Z,16.17
2023-11-23T22:38:55.296Z,16.75
2023-11-23T22:41:24.824Z,17.45
2023-11-23T22:43:53.183Z,16.80
2023-11-23T22:46:23.514Z,15.88
2023-11-23T22:48:52.147Z,19.13
2023-11-23T22:51:20.600Z,19.65
2023-11-23T22:53:48.621Z,15.88
2023-11-23T22:56:17.152Z,22.55
2023-11-23T22:58:45.433Z,18.98
2023-11-23T23:01:14.854Z,16.42
2023-11-23T23:03:45.128Z,18.42
2023-11-23T23:06:13.720Z,18.50
2023-11-23T23:08:41.815Z,19.40
2023-11-23T23:11:11.481Z,20.10
2023-11-23T23:13:40.013Z,19.25
2023-11-23T23:16:08.696Z,22.27
2023-11-23T23:18:36.936Z,19.55
2023-11-23T23:21:06.945Z,24.27
2023-11-23T23:23:34.960Z,17.35
2023-11-23T23:26:03.936Z,22.15
2023-11-23T23:28:32.865Z,20.02
2023-11-23T23:31:01.711Z,22.27
2023-11-23T23:33:30.108Z,24.80
2023-11-23T23:35:59.301Z,24.73
2023-11-23T23:38:28.904Z,20.80
2023-11-23T23:40:56.937Z,22.08
2023-11-23T23:43:26.041Z,24.05
2023-11-23T23:45:54.809Z,22.40
2023-11-23T23:48:22.914Z,21.50
2023-11-23T23:50:51.709Z,21.13
2023-11-23T23:53:19.904Z,21.80
2023-11-23T23:55:49.842Z,22.17
2023-11-23T23:58:18.210Z,22.38
